createdAt,value
2018-05-23T00:01:03.789Z,6.46
2018-05-23T00:07:04.347Z,6.65
2018-05-23T00:11:04.802Z,6.32
2018-05-23T00:13:05.329Z,6.29
2018-05-23T00:17:05.879Z,7.04
2018-05-23T00:23:06.479Z,5.43
2018-05-23T00:27:06.994Z,5.99
2018-05-23T00:33:07.577Z,7.95
2018-05-23T00:37:08.185Z,7.81
2018-05-23T00:39:08.563Z,7.38
2018-05-23T00:43:09.077Z,6.62
2018-05-23T00:49:09.520Z,6.98
2018-05-23T00:53:10.050Z,6.7
2018-05-23T00:59:10.474Z,8.41
2018-05-23T01:03:10.957Z,7.62
2018-05-23T01:05:11.419Z,6.63
2018-05-23T01:09:11.922Z,7.07
2018-05-23T01:15:12.770Z,6.27
2018-05-23T01:19:13.683Z,6.34
2018-05-23T01:25:14.200Z,7.85
2018-05-23T01:31:14.782Z,9.85
2018-05-23T01:35:15.321Z,11.3
2018-05-23T01:41:15.841Z,8.83
2018-05-23T01:45:16.858Z,10.81
2018-05-23T01:51:17.314Z,14.11
2018-05-23T01:57:17.876Z,15.55
2018-05-23T02:01:18.427Z,17.41
2018-05-23T02:07:18.927Z,17.52
2018-05-23T02:11:19.457Z,16.93
2018-05-23T02:13:19.905Z,16.07
2018-05-23T02:17:20.366Z,17.85
2018-05-23T02:23:20.913Z,13.3
2018-05-23T02:27:21.383Z,16.24
2018-05-23T02:33:21.965Z,13.41
2018-05-23T02:37:22.522Z,12.36
2018-05-23T02:39:23.040Z,13.46
2018-05-23T02:43:23.592Z,13.92
2018-05-23T02:49:24.078Z,17.53
2018-05-23T02:53:24.595Z,17.76
2018-05-23T02:59:25.229Z,16.37
2018-05-23T03:03:25.682Z,17.97
2018-05-23T03:05:26.171Z,18.48
2018-05-23T03:09:26.693Z,16.96
2018-05-23T03:15:27.298Z,14.45
2018-05-23T03:19:27.866Z,18.91
2018-05-23T03:25:28.375Z,16.7
2018-05-23T03:31:28.895Z,16.03
2018-05-23T03:35:29.329Z,17.37
2018-05-23T03:41:29.872Z,17.28
2018-05-23T03:45:30.747Z,16.88
2018-05-23T03:51:31.312Z,18.93
2018-05-23T03:57:31.893Z,14.06
2018-05-23T04:01:32.410Z,18.14
2018-05-23T04:07:32.907Z,14.15
2018-05-23T04:11:33.603Z,18.67
2018-05-23T04:13:34.070Z,16.19
2018-05-23T04:17:34.497Z,14.61
2018-05-23T04:23:35.001Z,12.83
2018-05-23T04:27:35.579Z,11.87
2018-05-23T04:33:36.407Z,11.59
2018-05-23T04:37:36.968Z,10.37
2018-05-23T04:39:37.404Z,11.86
2018-05-23T04:43:37.890Z,10.77
2018-05-23T04:49:38.400Z,11.23
2018-05-23T04:53:39.043Z,13.31
2018-05-23T04:59:39.593Z,11.41
2018-05-23T05:03:40.103Z,11.67
2018-05-23T05:05:40.578Z,13.7
2018-05-23T05:09:41.104Z,13.87
2018-05-23T05:15:41.604Z,16.47
2018-05-23T05:19:42.226Z,14.33
2018-05-23T05:25:42.659Z,13.17
2018-05-23T05:31:43.196Z,12.66
2018-05-23T05:35:43.690Z,13.76
2018-05-23T05:41:44.233Z,12.24
2018-05-23T05:45:44.717Z,12.68
2018-05-23T05:51:45.224Z,11.06
2018-05-23T05:57:45.823Z,10.49
2018-05-23T06:01:46.390Z,12.14
2018-05-23T06:07:47.169Z,10.69
2018-05-23T06:11:47.659Z,10.94
2018-05-23T06:13:48.172Z,11.27
2018-05-23T06:17:48.755Z,13
2018-05-23T06:23:49.246Z,11.05
2018-05-23T06:27:49.831Z,9.75
2018-05-23T06:33:50.360Z,8.63
2018-05-23T06:37:50.960Z,10.13
2018-05-23T06:39:51.419Z,10.12
2018-05-23T06:43:51.910Z,10.52
2018-05-23T06:49:52.418Z,10.87
2018-05-23T06:53:53.009Z,12.05
2018-05-23T06:59:53.494Z,9.2
2018-05-23T07:03:54.132Z,11.39
2018-05-23T07:05:54.659Z,12.54
2018-05-23T07:09:55.109Z,14.3
2018-05-23T07:15:55.606Z,9.76
2018-05-23T07:19:56.182Z,11.18
2018-05-23T07:25:57.719Z,9.7
2018-05-23T07:31:58.161Z,9.39
2018-05-23T07:35:58.708Z,8.25
2018-05-23T07:41:59.136Z,9.1
2018-05-23T07:45:59.870Z,10.19
2018-05-23T07:52:00.262Z,11.4
2018-05-23T07:58:00.887Z,12.66
2018-05-23T08:02:01.509Z,29.36903
2018-05-23T08:08:02.085Z,9.9
2018-05-23T08:12:02.636Z,10.25
2018-05-23T08:14:03.003Z,10.57
2018-05-23T08:18:03.571Z,10.85
2018-05-23T08:24:04.103Z,11.46
2018-05-23T08:28:04.655Z,10.63
2018-05-23T08:34:05.272Z,9.79
2018-05-23T08:38:05.808Z,10.37
2018-05-23T08:40:06.374Z,9.56
2018-05-23T08:44:06.847Z,9.18
2018-05-23T08:50:07.353Z,7.13
2018-05-23T08:54:07.897Z,9.02
2018-05-23T09:00:08.524Z,10.37
2018-05-23T09:04:09.116Z,11.51
2018-05-23T09:06:09.642Z,9.4
2018-05-23T09:10:10.168Z,9.82
2018-05-23T09:16:10.687Z,8
2018-05-23T09:20:11.326Z,9.21
2018-05-23T09:26:11.841Z,8
2018-05-23T09:32:12.448Z,10.4
2018-05-23T09:36:12.899Z,7.88
2018-05-23T09:42:13.517Z,7.74
2018-05-23T09:46:13.997Z,7.6
2018-05-23T09:52:15.036Z,8.93
2018-05-23T09:58:15.653Z,8.07
2018-05-23T10:02:16.181Z,6.73
2018-05-23T10:08:16.833Z,7.94
2018-05-23T10:12:17.467Z,8.92
2018-05-23T10:14:17.948Z,8.36
2018-05-23T10:18:18.978Z,7.27
2018-05-23T10:24:19.494Z,6.46
2018-05-23T10:28:19.976Z,7.24
2018-05-23T10:34:20.529Z,9.36
2018-05-23T10:38:21.412Z,8.3
2018-05-23T10:40:21.863Z,8.17
2018-05-23T10:44:22.404Z,7.88
2018-05-23T10:50:22.901Z,7.77
2018-05-23T10:54:23.378Z,7.06
2018-05-23T11:00:24.108Z,8.05
2018-05-23T11:06:24.601Z,6.56
2018-05-23T11:10:25.133Z,9.95
2018-05-23T11:16:25.676Z,7.05
2018-05-23T11:20:26.318Z,6.44
2018-05-23T11:26:26.864Z,7.1
2018-05-23T11:32:27.330Z,7.44
2018-05-23T11:36:27.971Z,6.04
2018-05-23T11:42:28.483Z,7.18
2018-05-23T11:46:29.011Z,7.76
2018-05-23T11:52:29.539Z,5.03
2018-05-23T11:58:30.099Z,5.98
2018-05-23T12:02:30.633Z,5.73
2018-05-23T12:08:31.160Z,4.97
2018-05-23T12:12:31.619Z,4.62
2018-05-23T12:14:32.137Z,5.27
2018-05-23T12:18:32.696Z,4.4
2018-05-23T12:24:33.197Z,4.45
2018-05-23T12:28:33.812Z,5.63
2018-05-23T12:34:34.310Z,3.72
2018-05-23T12:38:34.847Z,5.43
2018-05-23T12:40:35.378Z,4.78
2018-05-23T12:44:35.964Z,5.75
2018-05-23T12:50:36.473Z,7.01
2018-05-23T13:00:38.460Z,10.44
2018-05-23T13:00:38.495Z,5.99
2018-05-23T13:06:39.137Z,7.63
2018-05-23T13:10:39.796Z,12.23
2018-05-23T13:16:40.312Z,8.56
2018-05-23T13:20:40.778Z,7.92
2018-05-23T13:26:41.372Z,6.6
2018-05-23T13:32:42.150Z,7.42
2018-05-23T13:36:42.721Z,7.16
2018-05-23T13:42:43.282Z,8.01
2018-05-23T13:46:43.855Z,6.84
2018-05-23T13:48:44.366Z,5.58
2018-05-23T13:52:44.871Z,7.09
2018-05-23T13:58:45.514Z,5.67
2018-05-23T14:02:46.344Z,6.08
2018-05-23T14:08:47.128Z,7.89
2018-05-23T14:12:47.733Z,7.55
2018-05-23T14:14:48.102Z,6.98
2018-05-23T14:18:48.756Z,6.15
2018-05-23T14:24:49.313Z,5.77
2018-05-23T14:28:49.882Z,5.86
2018-05-23T14:38:51.943Z,7.36
2018-05-23T14:38:52.006Z,6.41
2018-05-23T14:40:52.464Z,5.74
2018-05-23T14:44:53.031Z,5.44
2018-05-23T14:50:53.537Z,6.2
2018-05-23T14:54:54.023Z,6.53
2018-05-23T15:00:54.634Z,6.02
2018-05-23T15:06:55.301Z,5.57
2018-05-23T15:10:55.845Z,6.63
2018-05-23T15:16:56.477Z,6.18
2018-05-23T15:20:56.938Z,5.95
2018-05-23T15:26:57.693Z,6.32
2018-05-23T15:32:58.206Z,5.63
2018-05-23T15:36:58.770Z,5.67
2018-05-23T15:42:59.410Z,4.81
2018-05-23T15:47:00.032Z,6.58
2018-05-23T15:49:00.505Z,5.22
2018-05-23T15:53:00.967Z,6.61
2018-05-23T15:59:01.672Z,5
2018-05-23T16:03:02.474Z,4.42
2018-05-23T16:09:02.928Z,6.09
2018-05-23T16:13:03.606Z,5.27
2018-05-23T16:15:05.140Z,5.16
2018-05-23T16:19:05.214Z,5.39
2018-05-23T16:25:05.712Z,5.05
2018-05-23T16:29:06.206Z,4.43
2018-05-23T16:35:06.773Z,6.76
2018-05-23T16:41:07.371Z,6.03
2018-05-23T16:45:08.358Z,5.77
2018-05-23T16:51:08.965Z,5.82
2018-05-23T16:55:09.694Z,5.99
2018-05-23T17:01:10.079Z,5.02
2018-05-23T17:07:10.810Z,5.6
2018-05-23T17:11:11.365Z,7.57
2018-05-23T17:17:11.945Z,4.9
2018-05-23T17:21:12.545Z,6.13
2018-05-23T17:27:13.438Z,5.31
2018-05-23T17:33:14.398Z,4.5
2018-05-23T17:37:14.931Z,5.84
2018-05-23T17:43:15.432Z,4.52
2018-05-23T17:47:15.907Z,5.27
2018-05-23T17:49:16.491Z,5.08
2018-05-23T17:53:17.258Z,5.1
2018-05-23T17:59:17.769Z,4.01
2018-05-23T18:03:18.317Z,4.35
2018-05-23T18:09:18.857Z,4.99
2018-05-23T18:13:19.374Z,4.45
2018-05-23T18:15:20.224Z,4.44
2018-05-23T18:19:20.590Z,4.45
2018-05-23T18:25:21.113Z,5.94
2018-05-23T18:29:26.742Z,5.32
2018-05-23T18:35:27.180Z,6.18
2018-05-23T18:39:27.806Z,4.66
2018-05-23T18:41:28.231Z,5.17
2018-05-23T18:45:29.463Z,4.16
2018-05-23T18:51:30.050Z,7.01
2018-05-23T18:55:30.596Z,5.48
2018-05-23T19:01:31.340Z,7.55
2018-05-23T19:07:31.953Z,5.79
2018-05-23T19:11:32.442Z,6.7
2018-05-23T19:17:33.165Z,6.34
2018-05-23T19:21:33.782Z,6.55
2018-05-23T19:27:34.449Z,5.82
2018-05-23T19:33:35.199Z,6.56
2018-05-23T21:55:31.131Z,8.24
2018-05-23T21:55:31.236Z,7.24
2018-05-23T21:55:31.269Z,5.89
2018-05-23T21:55:31.406Z,6.62
2018-05-23T21:55:31.479Z,7.04
2018-05-23T21:55:31.499Z,6.48
2018-05-23T21:55:31.578Z,10.09
2018-05-23T21:55:31.684Z,8.59
2018-05-23T21:55:31.710Z,8.4
2018-05-23T21:55:31.770Z,6.89
2018-05-23T21:55:31.874Z,7.34
2018-05-23T21:55:31.952Z,8.02
2018-05-23T21:55:32.019Z,6.69
2018-05-23T21:55:32.085Z,6.64
2018-05-23T21:55:32.156Z,7.46
2018-05-23T21:55:32.254Z,7.29
2018-05-23T21:55:32.320Z,7.74
2018-05-23T21:55:32.394Z,5.41
2018-05-23T21:55:32.489Z,6.56
2018-05-23T21:55:32.579Z,7.45
2018-05-23T21:55:32.654Z,7.88
2018-05-23T21:55:32.776Z,5.94
2018-05-23T21:55:32.825Z,10.63
2018-05-23T21:55:32.907Z,7.68
2018-05-23T21:55:32.988Z,6.74
2018-05-23T21:55:33.059Z,8.21
2018-05-23T21:55:33.097Z,9.17
2018-05-23T21:55:33.190Z,8.13
2018-05-23T21:55:33.240Z,7.04
2018-05-23T21:55:33.369Z,6.96
2018-05-23T21:59:33.911Z,9.43
2018-05-23T22:05:34.422Z,7.63
2018-05-23T22:09:34.970Z,7
2018-05-23T22:15:36.386Z,7.46
2018-05-23T22:21:36.858Z,6.84
2018-05-23T22:25:37.367Z,7.47
2018-05-23T22:31:37.913Z,6.34
2018-05-23T22:35:38.388Z,7.26
2018-05-23T22:37:38.937Z,7.84
2018-05-23T22:41:39.476Z,6.72
2018-05-23T22:47:40.022Z,7.51
2018-05-23T22:51:40.563Z,8.23
2018-05-23T22:57:41.142Z,7.79
2018-05-23T23:01:41.609Z,7.45
2018-05-23T23:03:42.083Z,6.88
2018-05-23T23:07:42.619Z,10.11
2018-05-23T23:13:43.091Z,9.14
2018-05-23T23:17:43.625Z,7.22
2018-05-23T23:23:44.153Z,7.06
2018-05-23T23:29:44.699Z,6.07
2018-05-23T23:33:45.220Z,7.79
2018-05-23T23:39:45.819Z,7.32
2018-05-23T23:43:46.362Z,8.36
2018-05-23T23:49:47.054Z,7.89
2018-05-23T23:55:47.632Z,6.67
2018-05-23T23:59:48.112Z,7.9
